Time;durP1;ratioP1;P1;durP2;ratioP2;P2;SDS_P1;SDS_P2;PMS_P1;PMS_P2;Temp;Humidity;BMP_temperature;BMP_pressure;BME280_temperature;BME280_humidity;BME280_pressure;Samples;Min_cycle;Max_cycle;Signal;HPM_P1;HPM_P2
2022/01/07 00:00:16;;;;;;;27.27;17.08;;;;;;;5.26;100.00;100392.34;5072764;28;20508;-83
2022/01/07 00:02:46;;;;;;;28.80;17.65;;;;;;;5.53;100.00;100448.47;5072883;28;20469;-82
2022/01/07 00:05:13;;;;;;;38.33;19.27;;;;;;;5.56;100.00;100450.31;5090856;28;20047;-82
2022/01/07 00:07:39;;;;;;;64.35;27.88;;;;;;;5.33;100.00;100425.19;5071878;28;20024;-86
2022/01/07 00:10:08;;;;;;;56.33;25.65;;;;;;;5.45;100.00;100427.53;5092868;28;20476;-82
2022/01/07 00:12:34;;;;;;;35.58;21.30;;;;;;;5.55;100.00;100452.00;5081909;28;20062;-80
2022/01/07 00:14:59;;;;;;;37.40;20.77;;;;;;;5.34;100.00;100415.81;5101541;28;20461;-80
2022/01/07 00:17:25;;;;;;;31.25;18.88;;;;;;;5.47;100.00;100448.09;5097919;28;20036;-80
2022/01/07 00:19:51;;;;;;;64.30;25.40;;;;;;;5.32;100.00;100420.84;5093786;28;20595;-84
2022/01/07 00:22:16;;;;;;;74.63;30.05;;;;;;;5.49;100.00;100456.78;5094791;28;20020;-79
2022/01/07 00:24:42;;;;;;;37.78;22.88;;;;;;;5.40;100.00;100438.34;5060464;28;20041;-80
2022/01/07 00:27:07;;;;;;;32.05;19.50;;;;;;;5.56;100.00;100461.44;5053766;28;20465;-78
2022/01/07 00:29:33;;;;;;;29.25;19.13;;;;;;;5.48;100.00;100470.34;5051410;28;20615;-78
2022/01/07 00:31:58;;;;;;;32.60;19.77;;;;;;;5.35;100.00;100468.78;5043835;28;20031;-78
2022/01/07 00:34:24;;;;;;;29.15;19.20;;;;;;;5.08;100.00;100471.47;5054719;28;20048;-77
2022/01/07 00:36:49;;;;;;;28.48;17.40;;;;;;;5.10;100.00;100486.94;5062278;28;20036;-78
2022/01/07 00:39:15;;;;;;;32.95;19.73;;;;;;;4.99;100.00;100491.41;5033179;28;20038;-80
2022/01/07 00:41:41;;;;;;;31.00;19.88;;;;;;;4.84;100.00;100483.72;5032009;28;20113;-80
2022/01/07 00:44:07;;;;;;;39.95;22.25;;;;;;;4.80;100.00;100476.66;5015077;28;20747;-81
2022/01/07 00:46:32;;;;;;;37.60;22.08;;;;;;;4.90;100.00;100485.72;5031088;28;20109;-83
2022/01/07 00:48:58;;;;;;;31.98;18.45;;;;;;;4.96;100.00;100481.88;5031728;28;20046;-80
2022/01/07 00:51:23;;;;;;;24.45;14.68;;;;;;;4.69;100.00;100412.94;5014920;28;20523;-80
2022/01/07 00:53:49;;;;;;;23.08;15.40;;;;;;;5.15;100.00;100485.53;5031740;28;20419;-80
2022/01/07 00:56:15;;;;;;;23.48;14.57;;;;;;;5.23;100.00;100503.91;5043961;28;20040;-80
2022/01/07 00:58:40;;;;;;;35.33;17.00;;;;;;;5.20;100.00;100494.38;5070198;28;20047;-82
2022/01/07 01:01:06;;;;;;;30.40;14.00;;;;;;;5.44;100.00;100527.31;5049779;28;20040;-79
2022/01/07 01:03:31;;;;;;;25.60;14.55;;;;;;;5.40;100.00;100526.25;5050014;28;20175;-81
2022/01/07 01:05:58;;;;;;;21.25;12.93;;;;;;;5.01;100.00;100489.84;5011761;28;20050;-74
2022/01/07 01:08:25;;;;;;;17.40;10.15;;;;;;;5.24;100.00;100532.13;5011037;28;20042;-74
2022/01/07 01:10:51;;;;;;;14.98;9.25;;;;;;;5.25;100.00;100518.56;5010856;28;20041;-74
2022/01/07 01:13:17;;;;;;;19.63;11.65;;;;;;;5.37;100.00;100536.34;5011530;28;20033;-80
2022/01/07 01:15:43;;;;;;;21.05;10.85;;;;;;;5.40;100.00;100528.81;4994992;28;20170;-81
2022/01/07 01:18:08;;;;;;;22.48;9.93;;;;;;;5.46;100.00;100529.16;5011978;28;20045;-81
2022/01/07 01:20:35;;;;;;;14.55;8.48;;;;;;;5.45;100.00;100523.97;5011692;28;20049;-77
2022/01/07 01:23:01;;;;;;;13.80;8.45;;;;;;;5.50;100.00;100540.47;5011659;28;20610;-86
2022/01/07 01:25:26;;;;;;;15.63;8.30;;;;;;;5.39;100.00;100536.41;5011404;28;20504;-85
2022/01/07 01:27:52;;;;;;;12.30;7.72;;;;;;;5.12;100.00;100495.59;5011179;28;20053;-84
2022/01/07 01:30:18;;;;;;;15.65;9.02;;;;;;;5.25;100.00;100531.34;5010101;28;20100;-82
2022/01/07 01:32:48;;;;;;;15.38;8.27;;;;;;;5.17;100.00;100528.34;5056144;28;20501;-83
2022/01/07 01:35:16;;;;;;;13.20;8.27;;;;;;;5.02;100.00;100541.09;5030741;28;20037;-85
2022/01/07 01:37:41;;;;;;;14.82;9.10;;;;;;;4.69;100.00;100514.34;5061237;28;20495;-80
2022/01/07 01:40:09;;;;;;;19.50;12.80;;;;;;;4.73;100.00;100521.41;5052255;28;20033;-83
2022/01/07 01:42:35;;;;;;;19.27;14.00;;;;;;;4.94;100.00;100549.97;5051850;28;20048;-80
2022/01/07 01:45:01;;;;;;;16.48;10.60;;;;;;;4.81;100.00;100506.53;5051812;28;20033;-81
2022/01/07 01:47:26;;;;;;;28.08;13.15;;;;;;;5.08;100.00;100547.38;5052236;28;20094;-82
2022/01/07 01:49:52;;;;;;;33.17;14.05;;;;;;;4.98;100.00;100528.91;5051877;28;20037;-86
2022/01/07 01:52:17;;;;;;;39.97;14.15;;;;;;;4.96;100.00;100521.91;5051710;28;20032;-85
2022/01/07 01:54:43;;;;;;;20.83;12.02;;;;;;;4.89;100.00;100551.38;5052735;28;20033;-90
2022/01/07 01:57:10;;;;;;;17.27;10.48;;;;;;;4.55;100.00;100556.97;5052500;28;20036;-85
2022/01/07 01:59:35;;;;;;;19.90;10.77;;;;;;;4.27;100.00;100539.88;5051394;28;20064;-83
2022/01/07 02:02:01;;;;;;;19.35;11.85;;;;;;;4.06;100.00;100549.63;5051621;28;20564;-83
2022/01/07 02:04:28;;;;;;;17.75;11.30;;;;;;;3.80;100.00;100507.97;5051818;28;20025;-83
2022/01/07 02:06:54;;;;;;;18.60;11.88;;;;;;;4.19;100.00;100561.53;5051658;28;20033;-82
2022/01/07 02:09:25;;;;;;;19.88;11.80;;;;;;;4.14;100.00;100548.44;5051624;28;20468;-88
2022/01/07 02:11:50;;;;;;;17.33;11.20;;;;;;;4.27;100.00;100559.47;5051594;28;20483;-83
2022/01/07 02:14:16;;;;;;;20.65;11.55;;;;;;;4.36;100.00;100570.25;5051319;28;20090;-82
2022/01/07 02:16:41;;;;;;;20.02;12.15;;;;;;;4.37;100.00;100572.94;5051445;28;20499;-81
2022/01/07 02:19:07;;;;;;;41.50;16.90;;;;;;;4.48;100.00;100565.91;5052851;28;20075;-80
2022/01/07 02:21:37;;;;;;;34.58;14.68;;;;;;;4.47;100.00;100563.28;5052887;28;20029;-89
2022/01/07 02:24:03;;;;;;;29.65;13.75;;;;;;;4.49;100.00;100571.94;5065733;28;20550;-89
2022/01/07 02:26:33;;;;;;;21.88;13.57;;;;;;;4.58;100.00;100567.38;5067875;28;20036;-86
2022/01/07 02:28:58;;;;;;;21.98;11.93;;;;;;;4.67;100.00;100583.31;5051893;28;20769;-86
2022/01/07 02:31:24;;;;;;;21.25;11.63;;;;;;;4.51;100.00;100575.44;5051161;28;20067;-85
2022/01/07 02:33:49;;;;;;;20.13;11.45;;;;;;;4.44;100.00;100555.44;5050845;28;20110;-82
2022/01/07 02:36:15;;;;;;;19.15;11.65;;;;;;;4.65;100.00;100578.91;5044030;28;20048;-84
2022/01/07 02:38:41;;;;;;;22.52;15.77;;;;;;;4.63;100.00;100548.09;5030951;28;20411;-85
2022/01/07 02:41:06;;;;;;;20.80;13.35;;;;;;;4.78;100.00;100560.06;5030449;28;20033;-86
2022/01/07 02:43:32;;;;;;;17.45;11.75;;;;;;;4.97;100.00;100572.31;5009969;28;20045;-86
2022/01/07 02:45:58;;;;;;;18.88;10.75;;;;;;;5.09;100.00;100585.84;5009919;28;20077;-86
2022/01/07 02:48:23;;;;;;;16.38;11.15;;;;;;;4.83;100.00;100536.53;5010167;28;20514;-77
2022/01/07 02:50:49;;;;;;;19.27;13.15;;;;;;;5.21;100.00;100582.25;5010171;28;20026;-77
2022/01/07 02:53:15;;;;;;;21.42;12.23;;;;;;;5.35;100.00;100596.78;5010218;28;20050;-78
2022/01/07 02:55:40;;;;;;;30.08;14.98;;;;;;;5.48;100.00;100594.16;5010037;28;20415;-78
2022/01/07 02:58:07;;;;;;;36.10;17.33;;;;;;;5.56;100.00;100589.50;5010596;28;20786;-80
2022/01/07 03:00:33;;;;;;;32.78;15.57;;;;;;;5.66;100.00;100602.03;5010062;28;20092;-79
2022/01/07 03:03:00;;;;;;;32.28;16.17;;;;;;;5.74;100.00;100601.63;5009640;28;20037;-84
2022/01/07 03:05:26;;;;;;;27.63;14.10;;;;;;;5.70;100.00;100579.19;5009714;28;20030;-87
2022/01/07 03:07:52;;;;;;;26.52;13.63;;;;;;;5.88;100.00;100602.41;5027207;28;20029;-78
2022/01/07 03:10:23;;;;;;;35.38;15.15;;;;;;;5.96;100.00;100616.56;5029043;28;20041;-78
2022/01/07 03:12:48;;;;;;;27.38;11.68;;;;;;;5.92;100.00;100614.59;5029251;28;20037;-79
2022/01/07 03:15:15;;;;;;;24.85;12.27;;;;;;;5.97;100.00;100626.03;5028599;28;20040;-78
2022/01/07 03:17:41;;;;;;;22.38;12.88;;;;;;;6.01;100.00;100628.00;5050307;28;20491;-77
2022/01/07 03:20:08;;;;;;;29.33;12.13;;;;;;;6.06;100.00;100630.84;5045292;28;20488;-77
2022/01/07 03:22:34;;;;;;;19.67;11.30;;;;;;;6.10;100.00;100632.75;5055205;28;20048;-76
2022/01/07 03:25:00;;;;;;;24.13;12.43;;;;;;;6.02;100.00;100629.75;5030553;28;20495;-77
2022/01/07 03:27:25;;;;;;;18.17;10.70;;;;;;;5.74;100.00;100637.47;5031344;28;20045;-76
2022/01/07 03:29:51;;;;;;;14.00;9.60;;;;;;;5.33;100.00;100641.88;5046582;28;20087;-77
2022/01/07 03:32:16;;;;;;;19.67;13.02;;;;;;;4.93;100.00;100581.47;5031130;28;20095;-79
2022/01/07 03:34:42;;;;;;;25.40;15.88;;;;;;;5.24;100.00;100631.09;5064621;28;20530;-79
2022/01/07 03:37:07;;;;;;;24.65;15.80;;;;;;;5.24;100.00;100624.28;5071310;28;20044;-80
2022/01/07 03:39:33;;;;;;;25.88;15.95;;;;;;;5.30;100.00;100636.59;5070727;28;20032;-78
2022/01/07 03:41:58;;;;;;;32.53;23.73;;;;;;;5.35;100.00;100648.84;5071123;28;20410;-76
2022/01/07 03:44:24;;;;;;;23.15;13.32;;;;;;;5.23;100.00;100653.22;5071035;28;20454;-75
2022/01/07 03:46:49;;;;;;;20.73;14.30;;;;;;;5.17;100.00;100666.56;5069683;28;20032;-75
2022/01/07 03:49:14;;;;;;;24.50;14.95;;;;;;;5.06;100.00;100644.53;5070936;28;20028;-74
2022/01/07 03:51:41;;;;;;;27.58;17.95;;;;;;;5.19;100.00;100671.75;5070759;28;20123;-76
2022/01/07 03:54:07;;;;;;;26.15;18.52;;;;;;;5.28;100.00;100672.34;5068277;28;20043;-77
2022/01/07 03:56:34;;;;;;;30.65;20.85;;;;;;;5.28;100.00;100656.97;5070061;28;20032;-75
2022/01/07 03:59:00;;;;;;;35.63;22.65;;;;;;;5.36;100.00;100652.31;5069636;28;20383;-79
2022/01/07 04:01:25;;;;;;;32.13;22.83;;;;;;;5.35;100.00;100650.56;5070052;28;20036;-79
2022/01/07 04:03:51;;;;;;;35.33;23.52;;;;;;;5.40;100.00;100643.16;5074232;28;20035;-79
2022/01/07 04:06:20;;;;;;;35.58;24.60;;;;;;;5.56;100.00;100663.75;5080439;28;20028;-80
2022/01/07 04:08:48;;;;;;;36.00;25.02;;;;;;;5.65;100.00;100682.22;5081186;28;20120;-79
2022/01/07 04:11:14;;;;;;;40.10;25.95;;;;;;;5.69;100.00;100687.56;5078764;28;20024;-79
2022/01/07 04:13:40;;;;;;;39.83;28.65;;;;;;;5.41;100.00;100678.19;5037098;28;20036;-79
2022/01/07 04:16:06;;;;;;;41.15;29.55;;;;;;;5.44;100.00;100679.25;5038427;28;20550;-79
2022/01/07 04:18:32;;;;;;;43.33;29.42;;;;;;;5.53;100.00;100689.16;5037364;28;20160;-79
2022/01/07 04:20:58;;;;;;;42.67;28.80;;;;;;;5.44;100.00;100679.25;5019920;28;20021;-81
2022/01/07 04:23:23;;;;;;;42.90;29.50;;;;;;;5.54;100.00;100687.50;5036354;28;20115;-80
2022/01/07 04:25:49;;;;;;;41.72;30.80;;;;;;;5.53;100.00;100680.63;5022099;28;20028;-80
2022/01/07 04:28:14;;;;;;;49.10;32.22;;;;;;;5.59;100.00;100698.91;5020923;28;20847;-79
2022/01/07 04:30:42;;;;;;;44.83;31.65;;;;;;;5.59;100.00;100699.78;5016948;28;20037;-79
2022/01/07 04:33:10;;;;;;;46.63;32.10;;;;;;;5.58;100.00;100697.16;5005017;28;20518;-79
2022/01/07 04:35:37;;;;;;;51.72;32.35;;;;;;;5.65;100.00;100702.72;5040335;28;20772;-80
2022/01/07 04:38:04;;;;;;;49.70;31.58;;;;;;;5.69;100.00;100719.16;5048039;28;20073;-74
2022/01/07 04:40:29;;;;;;;45.67;32.63;;;;;;;5.62;100.00;100709.34;5028085;28;20041;-82
2022/01/07 04:42:55;;;;;;;48.80;31.95;;;;;;;5.45;100.00;100672.47;5027867;28;20124;-81
2022/01/07 04:45:20;;;;;;;48.40;33.15;;;;;;;5.76;100.00;100717.88;5043691;28;20044;-82
2022/01/07 04:47:46;;;;;;;48.35;34.58;;;;;;;5.66;100.00;100717.31;5060831;28;20028;-84
2022/01/07 04:50:19;;;;;;;50.70;35.50;;;;;;;5.48;100.00;100691.47;5067943;28;20040;-82
2022/01/07 04:52:45;;;;;;;47.50;34.45;;;;;;;5.42;100.00;100687.63;5067842;28;20028;-82
2022/01/07 04:55:13;;;;;;;48.00;34.88;;;;;;;5.65;100.00;100736.03;5067743;28;20494;-88
2022/01/07 04:57:38;;;;;;;47.78;34.88;;;;;;;5.57;100.00;100721.88;5050875;28;20033;-83
2022/01/07 05:00:05;;;;;;;49.35;34.97;;;;;;;5.56;100.00;100696.16;5047178;28;20466;-84
2022/01/07 05:02:31;;;;;;;51.03;37.40;;;;;;;5.78;100.00;100747.00;5030402;28;20041;-80
2022/01/07 05:04:56;;;;;;;56.35;39.85;;;;;;;5.46;100.00;100703.28;5029172;28;20451;-79
2022/01/07 05:07:22;;;;;;;53.63;38.58;;;;;;;5.29;100.00;100678.34;5031651;28;20037;-80
2022/01/07 05:09:47;;;;;;;57.47;40.47;;;;;;;5.63;100.00;100737.63;5031573;28;20447;-80
2022/01/07 05:12:13;;;;;;;59.90;41.05;;;;;;;5.67;100.00;100754.94;5031284;28;20136;-81
2022/01/07 05:14:39;;;;;;;60.97;43.13;;;;;;;5.77;100.00;100773.41;5031325;28;20041;-80
2022/01/07 05:17:04;;;;;;;59.53;41.17;;;;;;;5.80;100.00;100763.38;5030632;28;20585;-82
2022/01/07 05:19:30;;;;;;;78.45;50.50;;;;;;;5.85;100.00;100777.34;5031024;28;20041;-78
2022/01/07 05:21:55;;;;;;;65.32;44.30;;;;;;;5.87;100.00;100780.00;5029698;28;20068;-78
2022/01/07 05:24:21;;;;;;;50.45;38.10;;;;;;;5.90;100.00;100785.31;5031241;28;20042;-77
2022/01/07 05:26:46;;;;;;;54.25;38.75;;;;;;;5.88;100.00;100790.38;5031053;28;20044;-78
2022/01/07 05:29:12;;;;;;;47.45;37.13;;;;;;;5.91;100.00;100787.97;5031197;28;20071;-77
2022/01/07 05:31:37;;;;;;;59.63;42.28;;;;;;;5.92;100.00;100782.06;5062050;28;20088;-77
2022/01/07 05:34:03;;;;;;;65.40;42.65;;;;;;;5.93;100.00;100790.63;5083762;28;20080;-77
2022/01/07 05:36:28;;;;;;;51.75;37.47;;;;;;;5.84;100.00;100783.25;5093369;28;20028;-78
2022/01/07 05:38:54;;;;;;;58.05;39.05;;;;;;;5.87;100.00;100800.50;5088255;28;20035;-77
2022/01/07 05:41:20;;;;;;;51.58;38.95;;;;;;;5.94;100.00;100797.53;5073350;28;20112;-77
2022/01/07 05:43:45;;;;;;;48.47;34.05;;;;;;;5.89;100.00;100797.22;5073075;28;20437;-79
2022/01/07 05:46:14;;;;;;;46.00;32.47;;;;;;;5.97;100.00;100801.16;5072982;28;20081;-77
2022/01/07 05:48:44;;;;;;;48.08;32.80;;;;;;;5.98;100.00;100808.09;5072756;28;20027;-78
2022/01/07 05:51:09;;;;;;;43.72;32.03;;;;;;;6.01;100.00;100814.19;5092931;28;20028;-78
2022/01/07 05:53:35;;;;;;;47.17;32.55;;;;;;;6.03;100.00;100820.28;5090010;28;20032;-77
2022/01/07 05:56:01;;;;;;;49.58;30.52;;;;;;;5.83;100.00;100792.63;5098419;28;20020;-85
2022/01/07 05:58:26;;;;;;;51.05;31.73;;;;;;;5.77;100.00;100814.41;5103901;28;20028;-85
2022/01/07 06:00:52;;;;;;;46.55;31.25;;;;;;;5.70;100.00;100828.53;5076742;28;20078;-87
2022/01/07 06:03:17;;;;;;;59.88;35.78;;;;;;;5.57;100.00;100826.88;5092078;28;20035;-86
2022/01/07 06:05:43;;;;;;;59.05;38.63;;;;;;;5.44;100.00;100822.66;5074317;28;20020;-85
2022/01/07 06:08:09;;;;;;;52.65;34.08;;;;;;;5.28;100.00;100808.00;5090524;28;20032;-87
2022/01/07 06:10:35;;;;;;;46.95;31.23;;;;;;;5.30;100.00;100814.09;5074496;28;20028;-86
2022/01/07 06:13:01;;;;;;;38.63;26.48;;;;;;;5.39;100.00;100818.91;5088074;28;20035;-78
2022/01/07 06:15:26;;;;;;;32.90;23.67;;;;;;;5.47;100.00;100843.34;5091351;28;20039;-78
2022/01/07 06:17:51;;;;;;;40.42;23.85;;;;;;;5.30;100.00;100834.59;5090178;28;20032;-79
2022/01/07 06:20:18;;;;;;;31.98;21.33;;;;;;;5.20;100.00;100832.22;5088856;28;20020;-77
2022/01/07 06:22:44;;;;;;;31.20;20.98;;;;;;;5.19;100.00;100830.44;5090740;28;20045;-80
2022/01/07 06:25:09;;;;;;;30.50;20.70;;;;;;;4.99;100.00;100786.53;5092130;28;20386;-82
2022/01/07 06:27:35;;;;;;;26.80;19.35;;;;;;;5.21;100.00;100834.00;5049249;28;20036;-81
2022/01/07 06:30:00;;;;;;;28.60;18.67;;;;;;;5.32;100.00;100845.81;5049357;28;20048;-78
2022/01/07 06:32:26;;;;;;;29.02;21.73;;;;;;;5.23;100.00;100842.66;5031059;28;20045;-82
2022/01/07 06:34:52;;;;;;;34.10;23.38;;;;;;;5.22;100.00;100832.31;5048505;28;20627;-84
2022/01/07 06:37:18;;;;;;;33.67;20.88;;;;;;;5.21;100.00;100839.13;5031929;28;20059;-85
2022/01/07 06:39:44;;;;;;;32.25;23.38;;;;;;;5.18;100.00;100823.56;5031799;28;20044;-86
2022/01/07 06:42:10;;;;;;;29.35;19.25;;;;;;;5.00;100.00;100819.03;5050269;28;20045;-84
2022/01/07 06:44:36;;;;;;;34.80;22.00;;;;;;;4.95;100.00;100811.84;5048875;28;20501;-84
2022/01/07 06:47:02;;;;;;;31.50;19.45;;;;;;;4.73;100.00;100789.09;5031948;28;20059;-82
2022/01/07 06:49:28;;;;;;;28.20;19.92;;;;;;;4.97;100.00;100834.19;5048925;28;20037;-83
2022/01/07 06:51:54;;;;;;;30.80;17.45;;;;;;;4.79;100.00;100809.97;5031963;28;20102;-82
2022/01/07 06:54:19;;;;;;;26.75;18.42;;;;;;;4.80;100.00;100816.84;5048928;28;20033;-84
2022/01/07 06:56:45;;;;;;;25.00;17.77;;;;;;;4.65;100.00;100788.59;5049239;28;20465;-82
2022/01/07 06:59:12;;;;;;;27.33;18.45;;;;;;;5.07;100.00;100842.44;5050990;28;20035;-80
2022/01/07 07:01:38;;;;;;;23.40;17.20;;;;;;;5.08;100.00;100828.88;5043576;28;20032;-74
2022/01/07 07:04:04;;;;;;;24.13;17.15;;;;;;;4.99;100.00;100801.88;5051301;28;20033;-76
2022/01/07 07:06:29;;;;;;;23.13;16.45;;;;;;;5.05;100.00;100808.19;5046261;28;20033;-75
2022/01/07 07:08:55;;;;;;;23.05;16.20;;;;;;;5.32;100.00;100850.94;5048015;28;20021;-75
2022/01/07 07:11:20;;;;;;;26.15;16.48;;;;;;;5.39;100.00;100851.31;5050337;28;20033;-74
2022/01/07 07:13:46;;;;;;;25.27;16.17;;;;;;;5.28;100.00;100848.97;5050009;28;20037;-72
2022/01/07 07:16:11;;;;;;;22.40;15.73;;;;;;;5.12;100.00;100823.16;5048072;28;20037;-73
2022/01/07 07:18:37;;;;;;;24.13;16.73;;;;;;;5.21;100.00;100834.00;5050344;28;20024;-73
2022/01/07 07:21:02;;;;;;;27.05;18.95;;;;;;;5.41;100.00;100862.53;5048951;28;20566;-73
2022/01/07 07:23:28;;;;;;;31.27;18.33;;;;;;;5.42;100.00;100857.53;5051916;28;20383;-74
2022/01/07 07:25:53;;;;;;;28.88;17.15;;;;;;;5.51;100.00;100852.13;5049628;28;20107;-73
2022/01/07 07:28:19;;;;;;;29.77;16.33;;;;;;;5.22;100.00;100810.19;5061023;28;20035;-73
2022/01/07 07:30:45;;;;;;;22.77;15.93;;;;;;;5.51;100.00;100854.66;5063759;28;20079;-80
2022/01/07 07:38:33;;;;;;;25.15;15.75;;;;;;;5.80;100.00;100858.19;5109963;28;20046;-81
2022/01/07 07:40:58;;;;;;;23.83;15.38;;;;;;;5.83;100.00;100863.47;5091515;28;20019;-83
2022/01/07 07:43:24;;;;;;;31.77;17.38;;;;;;;5.86;100.00;100855.09;5108876;28;20058;-83
2022/01/07 07:45:49;;;;;;;28.92;18.05;;;;;;;5.92;100.00;100866.63;5104994;28;20044;-81
2022/01/07 07:48:15;;;;;;;24.52;16.50;;;;;;;5.94;100.00;100859.94;5085961;28;20020;-82
2022/01/07 07:50:40;;;;;;;24.08;15.80;;;;;;;6.00;100.00;100854.31;5091891;28;20023;-82
2022/01/07 07:53:06;;;;;;;22.88;14.70;;;;;;;6.14;100.00;100873.09;5090751;28;20019;-85
2022/01/07 07:55:32;;;;;;;20.10;13.82;;;;;;;6.19;100.00;100865.69;5109700;28;20454;-84
2022/01/07 07:57:57;;;;;;;16.95;12.23;;;;;;;6.27;100.00;100873.06;5082928;28;20023;-81
2022/01/07 08:00:23;;;;;;;17.10;9.38;;;;;;;6.32;100.00;100875.91;5089393;28;20020;-81
2022/01/07 08:02:48;;;;;;;14.63;8.70;;;;;;;6.28;100.00;100869.72;5108148;28;20550;-78
2022/01/07 08:05:13;;;;;;;14.20;8.77;;;;;;;6.26;100.00;100862.72;5092467;28;20039;-78
2022/01/07 08:07:39;;;;;;;13.15;7.50;;;;;;;6.21;100.00;100836.78;5090319;28;20032;-78
2022/01/07 08:10:05;;;;;;;16.40;7.78;;;;;;;6.46;100.00;100892.13;5090247;28;20028;-78
2022/01/07 08:12:54;;;;;;;10.25;6.53;;;;;;;6.48;100.00;100893.13;5090165;28;20056;-82
2022/01/07 08:18:00;;;;;;;16.15;8.52;;;;;;;6.34;100.00;100870.88;5090179;28;20046;-84
2022/01/07 08:20:25;;;;;;;21.52;12.38;;;;;;;6.44;100.00;100880.88;5090834;28;20032;-84
2022/01/07 08:22:51;;;;;;;19.23;12.43;;;;;;;6.24;100.00;100847.25;5072400;28;20024;-83
2022/01/07 08:25:17;;;;;;;15.43;10.40;;;;;;;6.59;100.00;100901.44;5089167;28;20024;-83
2022/01/07 08:27:42;;;;;;;14.00;8.90;;;;;;;6.58;100.00;100884.25;5090564;28;20107;-83
2022/01/07 08:30:15;;;;;;;14.73;7.35;;;;;;;6.75;100.00;100904.16;5090438;28;20067;-82
2022/01/07 08:35:27;;;;;;;26.08;18.75;;;;;;;6.60;100.00;100865.63;5090526;28;20578;-82
2022/01/07 08:37:52;;;;;;;18.40;8.85;;;;;;;6.68;100.00;100890.84;5090470;28;20024;-83
2022/01/07 08:40:18;;;;;;;65.63;16.65;;;;;;;6.91;100.00;100902.47;5074802;28;20486;-80
2022/01/07 08:42:43;;;;;;;13.73;6.95;;;;;;;6.90;100.00;100903.25;5094943;28;20032;-82
2022/01/07 08:45:09;;;;;;;14.38;7.00;;;;;;;6.88;100.00;100905.75;5094372;28;20036;-81
2022/01/07 08:47:34;;;;;;;25.40;12.88;;;;;;;6.73;100.00;100874.03;5094327;28;20034;-82
2022/01/07 08:50:00;;;;;;;11.73;5.50;;;;;;;6.86;100.00;100889.34;5094172;28;20028;-82
2022/01/07 08:52:25;;;;;;;16.85;7.32;;;;;;;6.84;100.00;100888.41;5094007;28;20028;-82
2022/01/07 08:54:51;;;;;;;12.98;6.88;;;;;;;6.81;100.00;100877.94;5107883;28;20020;-82
2022/01/07 08:57:19;;;;;;;14.20;6.30;;;;;;;6.57;100.00;100820.94;5114416;28;20134;-82
2022/01/07 08:59:44;;;;;;;10.20;6.10;;;;;;;6.78;100.00;100844.41;5114377;28;20019;-82
2022/01/07 09:02:10;;;;;;;8.57;4.72;;;;;;;6.85;100.00;100843.94;5096063;28;20554;-81
2022/01/07 09:04:35;;;;;;;10.02;4.80;;;;;;;7.03;100.00;100876.59;5079650;28;20508;-82
2022/01/07 09:07:01;;;;;;;10.52;5.00;;;;;;;6.95;100.00;100865.91;5094097;28;20043;-81
2022/01/07 09:09:26;;;;;;;7.95;4.75;;;;;;;7.00;100.00;100853.34;5094144;28;20028;-82
2022/01/07 09:11:52;;;;;;;7.82;4.70;;;;;;;7.04;100.00;100851.06;5093485;28;20466;-81
2022/01/07 09:14:18;;;;;;;6.85;4.63;;;;;;;6.94;100.00;100836.78;5093862;28;20036;-82
2022/01/07 09:16:44;;;;;;;10.77;5.00;;;;;;;7.13;100.00;100871.22;5093777;28;20028;-81
2022/01/07 09:19:09;;;;;;;12.05;4.72;;;;;;;7.13;100.00;100863.53;5093464;28;20107;-82
2022/01/07 09:21:36;;;;;;;10.38;4.75;;;;;;;7.00;100.00;100843.06;5093771;28;20111;-81
2022/01/07 09:24:02;;;;;;;8.65;4.70;;;;;;;7.12;100.00;100880.59;5075578;28;20442;-81
2022/01/07 09:26:27;;;;;;;10.10;5.20;;;;;;;6.97;100.00;100849.78;5093392;28;20116;-81
2022/01/07 09:28:53;;;;;;;13.43;6.05;;;;;;;6.94;100.00;100833.31;5091350;28;20050;-82
2022/01/07 09:31:18;;;;;;;10.88;6.60;;;;;;;7.16;100.00;100884.22;5102607;28;20032;-84
2022/01/07 09:33:44;;;;;;;10.95;6.43;;;;;;;7.05;100.00;100851.94;5113727;28;20436;-83
2022/01/07 09:36:09;;;;;;;9.15;5.18;;;;;;;7.15;100.00;100859.34;5095494;28;20043;-83
2022/01/07 09:38:35;;;;;;;20.98;9.73;;;;;;;7.24;100.00;100870.16;5114246;28;20027;-82
2022/01/07 09:41:00;;;;;;;13.00;6.38;;;;;;;7.36;100.00;100862.25;5113803;28;20097;-82
2022/01/07 09:43:26;;;;;;;14.35;6.63;;;;;;;7.38;100.00;100865.78;5112283;28;20023;-81
2022/01/07 09:45:51;;;;;;;13.63;6.72;;;;;;;7.37;100.00;100868.28;5111807;28;20462;-81
2022/01/07 09:48:17;;;;;;;16.15;7.80;;;;;;;7.29;100.00;100863.59;5095055;28;20027;-80
2022/01/07 09:50:43;;;;;;;17.52;10.52;;;;;;;7.38;100.00;100877.75;5094512;28;20485;-79
2022/01/07 09:53:12;;;;;;;18.42;9.23;;;;;;;7.36;100.00;100875.09;5113062;28;20028;-79
2022/01/07 09:55:38;;;;;;;15.60;6.70;;;;;;;7.38;100.00;100875.19;5113345;28;20027;-80
2022/01/07 09:58:04;;;;;;;13.65;3.88;;;;;;;7.29;98.98;100866.16;5113386;28;20035;-79
2022/01/07 10:00:37;;;;;;;18.77;4.65;;;;;;;7.41;94.84;100880.50;5109276;28;20160;-79
2022/01/07 10:03:05;;;;;;;10.55;2.90;;;;;;;7.43;90.79;100873.75;5074657;28;20028;-80
2022/01/07 10:05:31;;;;;;;14.77;2.95;;;;;;;7.48;88.85;100885.19;5093025;28;20028;-79
2022/01/07 10:08:22;;;;;;;7.45;3.20;;;;;;;7.29;86.55;100855.00;5092989;28;20165;-79
2022/01/07 10:11:19;;;;;;;24.13;11.38;;;;;;;7.51;86.51;100880.19;5074375;28;20032;-79
2022/01/07 10:13:49;;;;;;;29.95;11.20;;;;;;;7.44;86.52;100872.97;5092581;28;20031;-79
2022/01/07 10:16:20;;;;;;;46.20;22.65;;;;;;;7.39;87.50;100865.00;5074588;28;20020;-79
2022/01/07 10:18:47;;;;;;;27.75;9.45;;;;;;;7.35;88.10;100865.63;5092818;28;20103;-79
2022/01/07 10:21:13;;;;;;;30.15;11.98;;;;;;;7.27;88.67;100844.63;5092608;28;20118;-80
2022/01/07 10:23:39;;;;;;;29.30;10.57;;;;;;;7.48;87.03;100872.34;5091226;28;20120;-79
2022/01/07 10:26:12;;;;;;;43.30;24.23;;;;;;;7.51;89.73;100875.06;5092432;28;20114;-79
2022/01/07 10:28:38;;;;;;;24.02;9.07;;;;;;;7.52;88.18;100886.25;5092321;28;20062;-79
2022/01/07 10:31:03;;;;;;;12.52;4.75;;;;;;;7.34;87.30;100844.97;5092276;28;20059;-79
2022/01/07 10:33:37;;;;;;;19.95;7.85;;;;;;;7.54;89.15;100885.53;5092018;28;20055;-80
2022/01/07 10:36:08;;;;;;;34.78;7.90;;;;;;;7.52;88.08;100866.56;5092115;28;20032;-85
2022/01/07 10:38:57;;;;;;;24.13;7.00;;;;;;;7.54;89.17;100874.34;5092034;28;20028;-81
2022/01/07 10:41:23;;;;;;;30.48;17.13;;;;;;;7.52;90.16;100861.41;5092012;28;20482;-78
2022/01/07 10:43:50;;;;;;;16.65;4.80;;;;;;;7.57;87.10;100870.25;5092274;28;20035;-78
2022/01/07 10:46:23;;;;;;;4.70;3.13;;;;;;;7.42;87.06;100869.41;5073899;28;20409;-79
2022/01/07 10:49:00;;;;;;;25.70;11.55;;;;;;;7.37;88.98;100860.56;5091843;28;20036;-79
2022/01/07 10:51:29;;;;;;;18.67;6.13;;;;;;;7.39;89.02;100869.22;5093739;28;20039;-80
2022/01/07 10:54:07;;;;;;;10.07;4.78;;;;;;;7.38;87.96;100865.78;5091011;28;20039;-78
2022/01/07 10:56:44;;;;;;;19.65;6.60;;;;;;;7.38;89.51;100876.06;5090074;28;20042;-82
2022/01/07 10:59:18;;;;;;;16.15;6.20;;;;;;;7.40;88.50;100871.00;5073843;28;20089;-81
2022/01/07 11:01:50;;;;;;;23.50;8.10;;;;;;;7.40;87.31;100869.34;5092320;28;20031;-82
2022/01/07 11:04:18;;;;;;;32.03;13.38;;;;;;;7.41;86.97;100865.06;5073782;28;20070;-82
2022/01/07 11:06:46;;;;;;;18.75;6.45;;;;;;;7.20;87.93;100827.13;5105041;28;20032;-82
2022/01/07 11:09:13;;;;;;;20.60;6.22;;;;;;;7.15;88.57;100810.56;5112230;28;20027;-82
2022/01/07 11:12:02;;;;;;;32.83;9.38;;;;;;;7.51;88.74;100869.06;5083841;28;20024;-81
2022/01/07 11:14:30;;;;;;;24.05;8.18;;;;;;;7.47;89.86;100865.41;5084599;28;20513;-82
2022/01/07 11:16:58;;;;;;;13.85;5.53;;;;;;;7.42;90.01;100854.00;5084840;28;20032;-83
2022/01/07 11:19:33;;;;;;;43.70;19.85;;;;;;;7.50;89.75;100869.84;5070718;28;20085;-78